createdAt,value
2023-01-21T00:00:56.286Z,11.38
2023-01-21T00:03:23.582Z,9.98
2023-01-21T00:05:50.744Z,9.88
2023-01-21T00:08:17.862Z,10.18
2023-01-21T00:10:45.074Z,10.30
2023-01-21T00:13:12.266Z,10.27
2023-01-21T00:15:39.628Z,9.77
2023-01-21T00:18:06.901Z,10.50
2023-01-21T00:20:34.186Z,10.40
2023-01-21T00:23:01.547Z,9.98
2023-01-21T00:25:28.815Z,10.75
2023-01-21T00:27:56.069Z,9.98
2023-01-21T00:30:23.494Z,10.98
2023-01-21T00:32:50.604Z,10.00
2023-01-21T00:35:17.698Z,10.05
2023-01-21T00:37:44.782Z,9.98
2023-01-21T00:40:12.376Z,8.88
2023-01-21T00:42:39.534Z,11.55
2023-01-21T00:45:06.968Z,10.75
2023-01-21T00:47:34.042Z,9.27
2023-01-21T00:50:01.144Z,8.95
2023-01-21T00:52:28.340Z,9.52
2023-01-21T00:54:55.564Z,9.82
2023-01-21T00:57:22.845Z,10.45
2023-01-21T00:59:50.133Z,11.32
2023-01-21T01:02:17.406Z,10.35
2023-01-21T01:04:44.616Z,10.38
2023-01-21T01:07:11.958Z,11.60
2023-01-21T01:09:39.133Z,11.80
2023-01-21T01:12:06.611Z,12.60
2023-01-21T01:14:33.808Z,14.93
2023-01-21T01:17:00.918Z,13.05
2023-01-21T01:19:28.169Z,13.68
2023-01-21T01:21:55.270Z,14.35
2023-01-21T01:24:22.397Z,13.25
2023-01-21T01:26:50.606Z,14.85
2023-01-21T01:29:18.620Z,13.50
2023-01-21T01:31:45.885Z,13.82
2023-01-21T01:34:13.054Z,14.05
2023-01-21T01:36:40.224Z,13.05
2023-01-21T01:39:07.679Z,14.30
2023-01-21T01:41:35.466Z,13.48
2023-01-21T01:44:06.791Z,11.77
2023-01-21T01:46:35.176Z,13.27
2023-01-21T01:49:17.690Z,13.00
2023-01-21T01:51:51.000Z,13.18
2023-01-21T01:54:23.544Z,13.20
2023-01-21T01:56:51.725Z,13.27
2023-01-21T01:59:19.696Z,15.13
2023-01-21T02:01:47.127Z,14.23
2023-01-21T02:04:18.072Z,15.02
2023-01-21T02:06:45.479Z,15.65
2023-01-21T02:09:12.617Z,13.00
2023-01-21T02:11:39.973Z,14.10
2023-01-21T02:14:07.175Z,14.15
2023-01-21T02:16:40.143Z,13.00
2023-01-21T02:19:25.822Z,13.20
2023-01-21T02:21:52.885Z,13.68
2023-01-21T02:24:22.744Z,13.98
2023-01-21T02:26:58.489Z,13.40
2023-01-21T02:29:28.725Z,12.55
2023-01-21T02:31:55.860Z,13.57
2023-01-21T02:34:46.229Z,11.95
2023-01-21T02:37:15.298Z,12.10
2023-01-21T02:39:55.004Z,11.50
2023-01-21T02:42:40.803Z,11.40
2023-01-21T02:45:16.981Z,13.23
2023-01-21T02:47:44.021Z,12.02
2023-01-21T02:50:20.593Z,13.30
2023-01-21T02:52:55.497Z,12.43
2023-01-21T02:55:24.633Z,13.40
2023-01-21T02:57:53.937Z,12.00
2023-01-21T03:00:23.746Z,14.30
2023-01-21T03:03:02.893Z,16.02
2023-01-21T03:05:35.391Z,12.00
2023-01-21T03:08:22.461Z,14.05
2023-01-21T03:10:53.328Z,13.82
2023-01-21T03:14:02.039Z,11.90
2023-01-21T03:16:50.530Z,14.05
2023-01-21T03:19:18.495Z,13.93
2023-01-21T03:21:46.867Z,10.80
2023-01-21T03:24:15.121Z,12.57
2023-01-21T03:26:47.089Z,11.75
2023-01-21T03:29:15.770Z,11.73
2023-01-21T03:31:44.825Z,13.20
2023-01-21T03:34:13.516Z,10.65
2023-01-21T03:36:46.430Z,10.85
2023-01-21T03:39:38.396Z,12.07
2023-01-21T03:42:05.773Z,11.57
2023-01-21T03:44:32.908Z,12.55
2023-01-21T03:47:03.729Z,12.02
2023-01-21T03:49:42.056Z,11.82
2023-01-21T03:52:09.801Z,11.02
2023-01-21T03:54:37.345Z,11.40
2023-01-21T03:57:04.551Z,11.70
2023-01-21T03:59:31.690Z,13.30
2023-01-21T04:01:58.856Z,13.45
2023-01-21T04:04:26.029Z,12.25
2023-01-21T04:06:53.244Z,12.23
2023-01-21T04:09:20.393Z,13.43
2023-01-21T04:11:47.449Z,13.13
2023-01-21T04:14:14.541Z,14.15
2023-01-21T04:16:41.835Z,13.32
2023-01-21T04:19:09.015Z,15.45
2023-01-21T04:21:36.185Z,14.23
2023-01-21T04:24:03.260Z,13.82
2023-01-21T04:26:30.357Z,13.02
2023-01-21T04:28:57.460Z,14.27
2023-01-21T04:31:24.625Z,12.88
2023-01-21T04:33:51.723Z,15.45
2023-01-21T04:36:19.021Z,12.10
2023-01-21T04:38:46.473Z,14.73
2023-01-21T04:41:13.625Z,13.68
2023-01-21T04:43:40.675Z,13.68
2023-01-21T04:46:07.832Z,12.10
2023-01-21T04:48:34.946Z,13.45
2023-01-21T04:51:02.175Z,13.02
2023-01-21T04:53:29.704Z,13.07
2023-01-21T04:55:56.785Z,11.95
2023-01-21T04:58:24.028Z,12.10
2023-01-21T05:00:51.950Z,13.25
2023-01-21T05:03:19.073Z,13.02
2023-01-21T05:05:46.135Z,13.35
2023-01-21T05:08:13.214Z,11.18
2023-01-21T05:10:40.524Z,12.02
2023-01-21T05:13:07.670Z,12.20
2023-01-21T05:15:34.871Z,12.80
2023-01-21T05:18:02.077Z,13.95
2023-01-21T05:20:29.245Z,13.73
2023-01-21T05:22:56.446Z,12.85
2023-01-21T05:25:23.635Z,13.50
2023-01-21T05:27:54.699Z,12.77
2023-01-21T05:30:22.301Z,11.57
2023-01-21T05:32:53.262Z,12.75
2023-01-21T05:35:24.527Z,11.18
2023-01-21T05:37:51.644Z,10.70
2023-01-21T05:40:19.447Z,11.27
2023-01-21T05:42:47.219Z,11.63
2023-01-21T05:45:14.396Z,12.13
2023-01-21T05:47:41.697Z,11.68
2023-01-21T05:50:09.309Z,10.95
2023-01-21T05:52:36.585Z,9.65
2023-01-21T05:55:03.782Z,9.85
2023-01-21T05:57:31.500Z,9.10
2023-01-21T05:59:58.950Z,11.15
2023-01-21T06:02:26.085Z,9.82
2023-01-21T06:04:53.271Z,9.35
2023-01-21T06:07:20.475Z,11.15
2023-01-21T06:09:47.695Z,10.05
2023-01-21T06:12:14.777Z,9.05
2023-01-21T06:14:42.059Z,10.30
2023-01-21T06:17:09.182Z,11.05
2023-01-21T06:19:36.347Z,10.15
2023-01-21T06:22:03.403Z,9.88
2023-01-21T06:24:30.505Z,11.57
2023-01-21T06:26:57.632Z,10.70
2023-01-21T06:29:24.794Z,9.73
2023-01-21T06:31:51.986Z,10.57
2023-01-21T06:34:19.309Z,10.38
2023-01-21T06:36:46.458Z,8.18
2023-01-21T06:39:13.521Z,8.15
2023-01-21T06:41:40.817Z,9.75
2023-01-21T06:44:08.159Z,9.68
2023-01-21T06:46:35.419Z,9.27
2023-01-21T06:49:02.655Z,8.43
2023-01-21T06:51:29.757Z,10.40
2023-01-21T06:53:56.861Z,10.73
2023-01-21T06:56:24.841Z,9.15
2023-01-21T06:58:52.011Z,8.40
2023-01-21T07:01:19.175Z,8.63
2023-01-21T07:03:46.502Z,9.23
2023-01-21T07:06:13.636Z,9.23
2023-01-21T07:08:40.817Z,8.95
2023-01-21T07:11:08.047Z,7.93
2023-01-21T07:13:35.177Z,8.80
2023-01-21T07:16:03.201Z,7.22
2023-01-21T07:18:31.174Z,7.50
2023-01-21T07:20:58.466Z,9.00
2023-01-21T07:23:25.788Z,10.23
2023-01-21T07:25:52.948Z,8.55
2023-01-21T07:28:20.241Z,7.32
2023-01-21T07:30:47.425Z,8.68
2023-01-21T07:33:15.249Z,9.45
2023-01-21T07:35:42.433Z,9.40
2023-01-21T07:38:09.690Z,9.88
2023-01-21T07:40:36.822Z,10.25
2023-01-21T07:43:04.157Z,12.90
2023-01-21T07:45:31.376Z,14.07
2023-01-21T07:47:59.130Z,9.13
2023-01-21T07:50:26.373Z,8.27
2023-01-21T07:52:54.780Z,9.45
2023-01-21T07:55:22.396Z,8.95
2023-01-21T07:57:49.548Z,10.82
2023-01-21T08:00:16.848Z,8.65
2023-01-21T08:02:44.082Z,9.90
2023-01-21T08:05:11.276Z,9.48
2023-01-21T08:07:38.396Z,9.60
2023-01-21T08:10:05.705Z,9.65
2023-01-21T08:12:32.858Z,10.77
2023-01-21T08:15:00.004Z,9.45
2023-01-21T08:17:27.314Z,11.57
2023-01-21T08:19:54.483Z,9.80
2023-01-21T08:22:21.628Z,9.38
2023-01-21T08:24:48.783Z,10.45
2023-01-21T08:27:15.940Z,10.15
2023-01-21T08:29:43.056Z,9.27
2023-01-21T08:32:10.155Z,12.57
2023-01-21T08:34:37.320Z,12.65
2023-01-21T08:37:04.487Z,12.57
2023-01-21T08:39:31.600Z,11.05
2023-01-21T08:41:58.790Z,10.95
2023-01-21T08:44:25.945Z,11.77
2023-01-21T08:46:53.242Z,10.02
2023-01-21T08:49:22.579Z,9.55
2023-01-21T08:51:50.266Z,9.68
2023-01-21T08:54:17.408Z,10.77
2023-01-21T08:56:44.569Z,9.55
2023-01-21T08:59:11.935Z,9.30
2023-01-21T09:01:41.106Z,10.50
2023-01-21T09:04:08.376Z,10.10
2023-01-21T09:06:35.572Z,26.13
2023-01-21T09:09:02.841Z,15.63
2023-01-21T09:11:30.397Z,10.02
2023-01-21T09:14:03.188Z,10.48
2023-01-21T09:16:31.716Z,10.40
2023-01-21T09:18:59.327Z,9.10
2023-01-21T09:21:27.533Z,11.27
2023-01-21T09:23:54.738Z,9.18
2023-01-21T09:26:22.934Z,9.60
2023-01-21T09:28:54.500Z,9.60
2023-01-21T09:31:23.380Z,9.38
2023-01-21T09:33:52.286Z,8.95
2023-01-21T09:36:23.942Z,9.00
2023-01-21T09:38:51.613Z,8.98
2023-01-21T09:41:18.620Z,9.70
2023-01-21T09:44:11.919Z,10.30
2023-01-21T09:46:39.304Z,9.95
2023-01-21T09:49:07.408Z,9.32
2023-01-21T09:51:52.778Z,8.77
2023-01-21T09:54:27.860Z,8.70
2023-01-21T09:57:10.451Z,8.38
2023-01-21T09:59:44.168Z,9.93
2023-01-21T10:02:34.266Z,8.45
2023-01-21T10:05:07.255Z,7.68
2023-01-21T10:07:35.425Z,8.93
2023-01-21T10:10:10.801Z,8.07
2023-01-21T10:12:37.845Z,8.63
2023-01-21T10:15:20.018Z,9.43
2023-01-21T10:18:04.362Z,10.20
2023-01-21T10:20:38.711Z,8.95
2023-01-21T10:23:29.070Z,10.10
2023-01-21T10:25:57.374Z,9.07
2023-01-21T10:28:26.567Z,9.68
2023-01-21T10:30:55.129Z,10.63
2023-01-21T10:33:24.241Z,9.57
2023-01-21T10:36:00.409Z,8.95
2023-01-21T10:38:43.714Z,8.75
2023-01-21T10:41:29.402Z,9.73
2023-01-21T10:43:56.526Z,8.77
2023-01-21T10:46:28.868Z,7.85
2023-01-21T10:48:55.985Z,9.45
2023-01-21T10:51:45.520Z,9.05
2023-01-21T10:54:22.643Z,8.73
2023-01-21T10:56:57.025Z,7.40
2023-01-21T10:59:26.976Z,9.55
2023-01-21T11:02:10.648Z,8.57
2023-01-21T11:04:38.023Z,9.10
2023-01-21T11:07:06.243Z,9.20
2023-01-21T11:09:35.626Z,8.52
2023-01-21T11:12:03.210Z,8.55
2023-01-21T11:14:30.497Z,9.68
2023-01-21T11:16:58.300Z,8.20
2023-01-21T11:19:26.616Z,7.78
2023-01-21T11:22:12.383Z,8.80
2023-01-21T11:24:44.032Z,8.95
2023-01-21T11:27:19.824Z,7.97
2023-01-21T11:29:48.775Z,7.40
2023-01-21T11:32:21.169Z,8.77
2023-01-21T11:34:49.365Z,8.10
2023-01-21T11:37:24.721Z,9.48
2023-01-21T11:40:12.076Z,8.70
2023-01-21T11:42:47.833Z,8.93
2023-01-21T11:45:28.279Z,15.73
2023-01-21T11:47:55.481Z,12.15
2023-01-21T11:50:39.381Z,10.43
2023-01-21T11:53:11.255Z,9.18
2023-01-21T11:55:41.152Z,9.40
2023-01-21T11:58:18.257Z,8.02
2023-01-21T12:00:46.626Z,9.40
2023-01-21T12:03:17.123Z,8.35
2023-01-21T12:05:48.707Z,8.82
2023-01-21T12:08:23.100Z,9.20
2023-01-21T12:10:51.417Z,9.88
2023-01-21T12:13:26.751Z,15.10
2023-01-21T12:15:53.879Z,12.68
2023-01-21T12:18:20.961Z,9.85
2023-01-21T12:21:26.773Z,8.93
2023-01-21T12:24:03.161Z,8.85
2023-01-21T12:26:46.706Z,9.63
2023-01-21T12:29:22.752Z,9.23
2023-01-21T12:31:59.773Z,9.55
2023-01-21T12:34:34.206Z,9.90
2023-01-21T12:37:04.250Z,10.00
2023-01-21T12:39:37.165Z,8.80
2023-01-21T12:42:10.409Z,9.57
2023-01-21T12:44:40.500Z,9.55
2023-01-21T12:47:12.199Z,9.13
2023-01-21T12:49:59.586Z,10.75
2023-01-21T12:52:32.785Z,8.90
2023-01-21T12:55:05.730Z,8.35
2023-01-21T12:57:42.536Z,9.73
2023-01-21T13:00:12.485Z,9.82
2023-01-21T13:02:44.388Z,9.40
2023-01-21T13:05:18.797Z,7.68
2023-01-21T13:08:14.522Z,8.35
2023-01-21T13:10:43.614Z,7.82
2023-01-21T13:13:26.243Z,7.50
2023-01-21T13:15:55.878Z,6.85
2023-01-21T13:18:31.204Z,7.93
2023-01-21T13:21:00.631Z,6.63
2023-01-21T13:23:46.787Z,7.15
2023-01-21T13:26:19.933Z,6.60
2023-01-21T13:28:51.920Z,7.15
2023-01-21T13:31:21.977Z,6.72
2023-01-21T13:33:58.320Z,6.07
2023-01-21T13:36:48.016Z,7.55
2023-01-21T13:39:20.097Z,6.50
2023-01-21T13:44:14.163Z,6.38
2023-01-21T13:46:55.093Z,7.13
2023-01-21T13:49:41.217Z,6.65
2023-01-21T13:52:08.346Z,5.82
2023-01-21T13:54:43.266Z,5.80
2023-01-21T13:57:26.017Z,5.22
2023-01-21T14:00:01.087Z,4.82
2023-01-21T14:02:31.183Z,5.40
2023-01-21T14:05:24.547Z,5.03
2023-01-21T14:07:54.630Z,4.32
2023-01-21T14:10:27.544Z,5.20
2023-01-21T14:12:57.752Z,5.53
2023-01-21T14:15:27.722Z,4.63
2023-01-21T14:17:54.851Z,5.50
2023-01-21T14:20:31.313Z,4.18
2023-01-21T14:23:04.324Z,3.85
2023-01-21T14:25:51.660Z,3.42
2023-01-21T14:28:34.181Z,3.10
2023-01-21T14:31:07.761Z,3.92
2023-01-21T14:33:55.269Z,3.45
2023-01-21T14:36:22.331Z,3.35
2023-01-21T14:39:01.953Z,4.47
2023-01-21T14:41:48.056Z,3.10
2023-01-21T14:44:34.061Z,3.53
2023-01-21T14:47:18.226Z,4.05
2023-01-21T14:49:49.347Z,3.60
2023-01-21T14:52:20.868Z,4.00
2023-01-21T14:54:48.653Z,3.47
2023-01-21T14:57:24.769Z,3.47
2023-01-21T14:59:53.116Z,3.25
2023-01-21T15:02:20.469Z,4.00
2023-01-21T15:05:01.485Z,3.75
2023-01-21T15:07:30.432Z,4.10
2023-01-21T15:09:59.482Z,3.83
2023-01-21T15:12:29.133Z,3.95
2023-01-21T15:14:58.104Z,4.10
2023-01-21T15:17:44.044Z,4.20
2023-01-21T15:20:30.053Z,3.67
2023-01-21T15:23:18.946Z,4.53
2023-01-21T15:26:04.776Z,4.47
2023-01-21T15:28:45.777Z,4.07
2023-01-21T15:31:14.602Z,4.10
2023-01-21T15:33:51.091Z,4.13
2023-01-21T15:36:24.800Z,4.53
2023-01-21T15:38:53.468Z,4.18
2023-01-21T15:41:28.840Z,4.57
2023-01-21T15:44:07.988Z,4.03
2023-01-21T15:46:44.209Z,4.78
2023-01-21T15:49:31.415Z,4.95
2023-01-21T15:51:58.451Z,4.40
2023-01-21T15:54:31.608Z,6.40
2023-01-21T15:57:28.230Z,6.60
2023-01-21T16:00:18.420Z,7.18
2023-01-21T16:02:53.094Z,6.38
2023-01-21T16:05:24.256Z,6.65
2023-01-21T16:07:51.309Z,5.40
2023-01-21T16:10:27.501Z,6.68
2023-01-21T16:12:54.728Z,7.03
2023-01-21T16:15:40.287Z,6.13
2023-01-21T16:18:11.935Z,5.78
2023-01-21T16:20:43.084Z,7.10
2023-01-21T16:23:10.454Z,9.37
2023-01-21T16:25:45.614Z,9.88
2023-01-21T16:28:12.748Z,9.90
2023-01-21T16:30:39.881Z,9.20
2023-01-21T16:33:08.960Z,8.95
2023-01-21T16:35:43.304Z,9.20
2023-01-21T16:38:14.576Z,8.68
2023-01-21T16:40:41.721Z,8.13
2023-01-21T16:43:18.503Z,8.02
2023-01-21T16:45:52.874Z,7.97
2023-01-21T16:48:21.910Z,7.70
2023-01-21T16:50:49.329Z,7.60
2023-01-21T16:53:18.032Z,7.65
2023-01-21T16:55:46.308Z,7.38
2023-01-21T16:58:22.290Z,7.40
2023-01-21T17:01:05.969Z,7.40
2023-01-21T17:03:33.457Z,9.23
2023-01-21T17:06:02.977Z,9.65
2023-01-21T17:08:30.253Z,8.70
2023-01-21T17:10:57.776Z,7.65
2023-01-21T17:13:25.467Z,7.40
2023-01-21T17:16:00.779Z,6.40
2023-01-21T17:18:32.481Z,7.63
2023-01-21T17:21:02.093Z,7.43
2023-01-21T17:23:30.854Z,7.82
2023-01-21T17:26:03.757Z,8.50
2023-01-21T17:28:53.446Z,8.02
2023-01-21T17:31:27.771Z,6.47
2023-01-21T17:34:04.407Z,8.15
2023-01-21T17:36:36.752Z,8.18
2023-01-21T17:39:05.437Z,8.93
2023-01-21T17:41:34.515Z,9.05
2023-01-21T17:44:03.322Z,8.02
2023-01-21T17:46:31.000Z,8.32
2023-01-21T17:49:05.856Z,8.38
2023-01-21T17:51:33.283Z,9.23
2023-01-21T17:54:02.058Z,8.98
2023-01-21T17:56:42.898Z,8.48
2023-01-21T17:59:28.965Z,8.57
2023-01-21T18:01:56.345Z,7.22
2023-01-21T18:04:23.601Z,7.63
2023-01-21T18:06:52.104Z,9.10
2023-01-21T18:09:20.697Z,7.97
2023-01-21T18:11:48.430Z,6.35
2023-01-21T18:14:19.904Z,7.05
2023-01-21T18:16:47.875Z,7.47
2023-01-21T18:19:30.272Z,7.10
2023-01-21T18:21:57.636Z,6.40
2023-01-21T18:24:25.554Z,6.18
2023-01-21T18:26:53.379Z,5.90
2023-01-21T18:29:21.857Z,6.95
2023-01-21T18:31:52.283Z,6.95
2023-01-21T18:34:19.530Z,6.25
2023-01-21T18:36:46.783Z,6.20
2023-01-21T18:39:14.977Z,6.30
2023-01-21T18:41:42.203Z,6.70
2023-01-21T18:44:09.567Z,6.80
2023-01-21T18:46:43.978Z,7.53
2023-01-21T18:49:13.525Z,6.13
2023-01-21T18:51:40.661Z,6.47
2023-01-21T18:54:07.923Z,5.97
2023-01-21T18:56:36.107Z,6.75
2023-01-21T18:59:03.500Z,7.10
2023-01-21T19:01:30.828Z,7.60
2023-01-21T19:03:58.073Z,9.07
2023-01-21T19:06:25.286Z,9.00
2023-01-21T19:08:52.492Z,8.27
2023-01-21T19:11:19.691Z,9.27
2023-01-21T19:13:46.911Z,9.13
2023-01-21T19:16:16.609Z,10.68
2023-01-21T19:18:43.905Z,10.35
2023-01-21T19:21:11.269Z,11.27
2023-01-21T19:23:40.066Z,10.48
2023-01-21T19:26:07.387Z,9.23
2023-01-21T19:28:34.994Z,10.63
2023-01-21T19:31:02.347Z,9.55
2023-01-21T19:33:31.753Z,9.55
2023-01-21T19:36:00.985Z,9.00
2023-01-21T19:38:28.633Z,10.50
2023-01-21T19:40:56.405Z,10.07
2023-01-21T19:43:23.869Z,8.57
2023-01-21T19:45:51.803Z,8.93
2023-01-21T19:48:19.895Z,8.13
2023-01-21T19:50:47.194Z,9.90
2023-01-21T19:53:18.240Z,11.18
2023-01-21T19:55:46.755Z,10.10
2023-01-21T19:58:19.725Z,8.68
2023-01-21T20:00:49.190Z,9.60
2023-01-21T20:03:17.855Z,8.88
2023-01-21T20:05:45.563Z,9.02
2023-01-21T20:08:14.226Z,7.95
2023-01-21T20:10:41.451Z,8.70
2023-01-21T20:13:12.448Z,8.68
2023-01-21T20:15:39.678Z,7.95
2023-01-21T20:18:07.461Z,7.60
2023-01-21T20:20:34.659Z,7.03
2023-01-21T20:23:02.258Z,7.35
2023-01-21T20:25:36.782Z,6.93
2023-01-21T20:28:07.519Z,6.70
2023-01-21T20:30:34.747Z,8.55
2023-01-21T20:33:02.987Z,8.20
2023-01-21T20:35:30.219Z,7.43
2023-01-21T20:37:58.867Z,6.32
2023-01-21T20:40:27.788Z,7.22
2023-01-21T20:42:55.886Z,7.63
2023-01-21T20:45:24.716Z,7.05
2023-01-21T20:47:53.996Z,7.47
2023-01-21T20:50:22.383Z,7.85
2023-01-21T20:52:50.351Z,7.95
2023-01-21T20:55:20.911Z,7.45
2023-01-21T20:57:48.520Z,7.82
2023-01-21T21:00:26.451Z,7.85
2023-01-21T21:02:55.588Z,8.40
2023-01-21T21:05:23.945Z,6.95
2023-01-21T21:07:51.165Z,8.88
2023-01-21T21:10:31.501Z,6.78
2023-01-21T21:12:58.931Z,7.65
2023-01-21T21:15:33.985Z,7.95
2023-01-21T21:18:01.568Z,7.95
2023-01-21T21:20:30.818Z,8.98
2023-01-21T21:22:57.969Z,8.55
2023-01-21T21:25:28.946Z,7.38
2023-01-21T21:27:56.701Z,7.18
2023-01-21T21:30:28.269Z,8.30
2023-01-21T21:32:59.222Z,11.98
2023-01-21T21:35:35.137Z,9.77
2023-01-21T21:38:06.645Z,9.82
2023-01-21T21:40:35.799Z,8.80
2023-01-21T21:43:21.662Z,9.65
2023-01-21T21:46:07.462Z,9.25
2023-01-21T21:48:46.118Z,9.30
2023-01-21T21:51:14.399Z,9.90
2023-01-21T21:53:42.143Z,8.98
2023-01-21T21:56:10.935Z,7.80
2023-01-21T21:58:38.280Z,9.57
2023-01-21T22:01:13.348Z,9.25
2023-01-21T22:03:40.988Z,8.48
2023-01-21T22:06:08.510Z,8.88
2023-01-21T22:08:36.865Z,7.15
2023-01-21T22:11:05.585Z,7.80
2023-01-21T22:13:34.632Z,6.88
2023-01-21T22:16:02.193Z,8.70
2023-01-21T22:18:30.838Z,9.00
2023-01-21T22:21:01.954Z,8.00
2023-01-21T22:23:32.831Z,8.70
2023-01-21T22:26:01.429Z,8.85
2023-01-21T22:28:28.810Z,9.10
2023-01-21T22:30:56.287Z,9.15
2023-01-21T22:33:23.472Z,9.52
2023-01-21T22:35:50.690Z,8.48
2023-01-21T22:38:17.912Z,9.30
2023-01-21T22:40:45.078Z,8.48
2023-01-21T22:43:12.230Z,10.25
2023-01-21T22:45:40.764Z,8.93
2023-01-21T22:48:07.911Z,9.73
2023-01-21T22:50:35.029Z,9.05
2023-01-21T22:53:02.142Z,10.35
2023-01-21T22:55:29.254Z,8.48
2023-01-21T22:57:56.375Z,8.85
2023-01-21T23:00:40.088Z,9.57
2023-01-21T23:03:07.952Z,8.90
2023-01-21T23:05:35.910Z,7.68
2023-01-21T23:08:03.121Z,8.13
2023-01-21T23:10:30.385Z,11.10
2023-01-21T23:12:57.547Z,10.15
2023-01-21T23:15:24.754Z,9.20
2023-01-21T23:17:55.071Z,10.07
2023-01-21T23:20:22.228Z,9.43
2023-01-21T23:22:49.425Z,8.63
2023-01-21T23:25:16.584Z,9.73
2023-01-21T23:27:43.725Z,8.52
2023-01-21T23:30:11.216Z,9.13
2023-01-21T23:32:38.287Z,9.25
2023-01-21T23:35:06.037Z,7.80
2023-01-21T23:37:33.201Z,7.57
2023-01-21T23:40:00.348Z,8.52
2023-01-21T23:42:27.476Z,8.20
2023-01-21T23:44:54.568Z,9.65
2023-01-21T23:47:21.728Z,8.07
2023-01-21T23:49:48.847Z,8.77
2023-01-21T23:52:16.002Z,8.57
2023-01-21T23:54:43.728Z,8.30
2023-01-21T23:57:11.282Z,8.05
2023-01-21T23:59:38.864Z,8.13
